»·PEaware :: SKW4931 KLAS-KSNA

SKW4931 :: KLAS-KSNA

FLIGHT INFORMATION

Flight Status: Arrived
Operator:
SkyWest Airlines
More flights by this operator :: More flights under this callsign
Pilot: Nigam P. (15980)
Aircraft: EMBRAER EMB-170/175
(E170)
More flights by this aircraft type
Origin: KLAS McCarran Intl
United States
Destination: KSNA John Wayne-Orange Co
United States
More flights between these airports :: More routes between these airports
Route: +BOACH8 WHIGG FEYLA DSNEE2
File this flight plan on PilotEdge
Remarks:
Altitude:
(Current/Filed)
26,000ft
Speed:
(Current/Filed)
450kts
Departed: 03-Jan-18 10:10 PM
Arrived: 03-Jan-18 10:54 PM
Distance/Time
Traveled:
196nm/0:44
Distance/Time
To Go:
Arrived

Flight Plot

Page will automatically refresh every two minutes.

Flight plan parsing failed; only flown route is shown


Map Options




Map Legend


Flown Route
Filed Route
Departure Airport
Arrival Airport
Navaid (VOR, NDB)
Fix

Horizontal Profiles

Position Reports

Time Latitude Longitude Heading Altitude Ground
Speed
03-Jan-18 21:36 36.080603 -115.138835 313 2192ft 0kts
03-Jan-18 21:37 36.080603 -115.138835 313 2192ft 0kts
03-Jan-18 21:38 36.080603 -115.138835 313 2192ft 0kts
03-Jan-18 21:39 36.080603 -115.138835 313 2192ft 0kts
03-Jan-18 21:40 36.080603 -115.138835 313 2192ft 0kts
03-Jan-18 21:41 36.080603 -115.138835 313 2192ft 0kts
03-Jan-18 21:42 36.080603 -115.138835 313 2192ft 0kts
03-Jan-18 21:43 36.080603 -115.138835 313 2192ft 0kts
03-Jan-18 21:44 36.080603 -115.138835 313 2192ft 0kts
03-Jan-18 21:45 36.080603 -115.138835 313 2192ft 0kts
03-Jan-18 21:46 36.080603 -115.138835 313 2192ft 0kts
03-Jan-18 21:47 36.080603 -115.138835 313 2192ft 0kts
03-Jan-18 21:48 36.080603 -115.138835 313 2192ft 0kts
03-Jan-18 21:49 36.080603 -115.138835 313 2192ft 0kts
03-Jan-18 21:50 36.080603 -115.138835 313 2192ft 0kts
03-Jan-18 21:51 36.080603 -115.138835 313 2192ft 0kts
03-Jan-18 21:52 36.080603 -115.138835 313 2192ft 0kts
03-Jan-18 21:53 36.080603 -115.138835 313 2192ft 0kts
03-Jan-18 21:54 36.080603 -115.138835 313 2192ft 0kts
03-Jan-18 21:55 36.080603 -115.138835 313 2192ft 0kts
03-Jan-18 21:56 36.080584 -115.138813 313 2192ft 0kts
03-Jan-18 21:57 36.080584 -115.138813 313 2192ft 0kts
03-Jan-18 21:58 36.080584 -115.138813 313 2192ft 0kts
03-Jan-18 21:59 36.080584 -115.138813 313 2192ft 0kts
03-Jan-18 22:00 36.080584 -115.138813 313 2192ft 0kts
03-Jan-18 22:01 36.080584 -115.138813 313 2192ft 0kts
03-Jan-18 22:02 36.080584 -115.138813 313 2192ft 0kts
03-Jan-18 22:03 36.080584 -115.138813 313 2192ft 0kts
03-Jan-18 22:04 36.080584 -115.138813 313 2192ft 0kts
03-Jan-18 22:05 36.080584 -115.138813 313 2192ft 0kts
03-Jan-18 22:06 36.080584 -115.138813 313 2192ft 0kts
03-Jan-18 22:07 36.080584 -115.138813 313 2192ft 0kts
03-Jan-18 22:08 36.080584 -115.138813 313 2192ft 0kts
03-Jan-18 22:09 36.080096 -115.138178 313 2192ft 2kts
03-Jan-18 22:10 36.079979 -115.137967 348 2192ft 2kts
03-Jan-18 22:11 36.080193 -115.137800 56 2192ft 2kts
03-Jan-18 22:12 36.078835 -115.135478 142 2192ft 11kts
03-Jan-18 22:13 36.078235 -115.130213 90 2192ft 21kts
03-Jan-18 22:14 36.077827 -115.122700 130 2192ft 14kts
03-Jan-18 22:15 36.077260 -115.122085 193 2192ft 4kts
03-Jan-18 22:16 36.076327 -115.134706 269 2192ft 131kts
03-Jan-18 22:17 36.076187 -115.202993 270 4131ft 222kts
03-Jan-18 22:18 36.050218 -115.273934 206 5856ft 279kts
03-Jan-18 22:19 35.977476 -115.297707 194 6123ft 256kts
03-Jan-18 22:20 35.904824 -115.310393 184 7534ft 272kts
03-Jan-18 22:21 35.827425 -115.310468 176 9568ft 280kts
03-Jan-18 22:22 35.742679 -115.302199 176 11997ft 339kts
03-Jan-18 22:23 35.660835 -115.343111 246 14826ft 348kts
03-Jan-18 22:24 35.614585 -115.449458 226 17667ft 369kts
03-Jan-18 22:25 35.537398 -115.535942 226 20212ft 382kts
03-Jan-18 22:26 35.458595 -115.628965 227 22532ft 395kts
03-Jan-18 22:27 35.378682 -115.723109 227 24887ft 398kts
03-Jan-18 22:28 35.298802 -115.816870 227 26981ft 401kts
03-Jan-18 22:29 35.217632 -115.912333 228 28136ft 410kts
03-Jan-18 22:30 35.138019 -116.012678 229 28152ft 410kts
03-Jan-18 22:31 35.058585 -116.113001 229 28147ft 410kts
03-Jan-18 22:32 34.979231 -116.212716 229 28150ft 410kts
03-Jan-18 22:33 34.900029 -116.311897 229 28149ft 410kts
03-Jan-18 22:34 34.822092 -116.410379 229 27466ft 395kts
03-Jan-18 22:35 34.747034 -116.505682 229 26383ft 387kts
03-Jan-18 22:36 34.669756 -116.596797 222 26037ft 390kts
03-Jan-18 22:37 34.584949 -116.679714 222 24984ft 395kts
03-Jan-18 22:38 34.500189 -116.763153 225 23307ft 386kts
03-Jan-18 22:39 34.423673 -116.852244 226 20322ft 374kts
03-Jan-18 22:40 34.350046 -116.938048 225 17359ft 360kts
03-Jan-18 22:41 34.278906 -117.020040 225 15215ft 340kts
03-Jan-18 22:42 34.198813 -117.081503 212 14985ft 341kts
03-Jan-18 22:43 34.113857 -117.132341 206 14417ft 340kts
03-Jan-18 22:44 34.028222 -117.178652 205 13300ft 334kts
03-Jan-18 22:45 33.956761 -117.247232 229 11678ft 339kts
03-Jan-18 22:46 33.900318 -117.328521 230 10701ft 294kts
03-Jan-18 22:47 33.851946 -117.399869 229 9727ft 278kts
03-Jan-18 22:48 33.809536 -117.474950 253 8383ft 267kts
03-Jan-18 22:49 33.784521 -117.554480 249 8006ft 245kts
03-Jan-18 22:50 33.771133 -117.626552 297 7748ft 219kts
03-Jan-18 22:51 33.813042 -117.686977 311 5869ft 252kts
03-Jan-18 22:52 33.861022 -117.751964 311 4124ft 257kts
03-Jan-18 22:53 33.897448 -117.819662 261 3150ft 229kts
03-Jan-18 22:54 33.853405 -117.828036 135 3001ft 189kts
03-Jan-18 22:55 33.819595 -117.784013 132 2557ft 171kts
03-Jan-18 22:56 33.781411 -117.796723 222 2417ft 167kts
03-Jan-18 22:57 33.743496 -117.826050 208 1479ft 151kts
03-Jan-18 22:58 33.708110 -117.848139 207 688ft 143kts
03-Jan-18 22:59 33.674519 -117.869537 207 67ft 113kts
03-Jan-18 23:00 33.668908 -117.871427 37 67ft 16kts
03-Jan-18 23:01 33.672788 -117.867377 46 67ft 20kts
03-Jan-18 23:02 33.677884 -117.863939 25 67ft 14kts
03-Jan-18 23:03 33.678353 -117.862662 115 67ft 0kts

Navigation Log

Ident Type
Flight plan parsing failed, navigation log unavailable